Close Search

Base
°C
Summit
°C

WEATHER AT A GLANCE

Image Slideshow

RMR Village

Revelstoke Mountain Resort -  RMR Village Webcam

Top of The Stoke

Revelstoke Mountain Resort -  Top of The Stoke Webcam

Top of Stellar

Revelstoke Mountain Resort -  Top of Stellar Webcam

Mackenzie Outpost

Revelstoke Mountain Resort -  Mackenzie Outpost Webcam

Ripper

Revelstoke Mountain Resort -  Ripper Webcam
Base
°C
Summit
°C
Wind (Summit)
km/h

Today's Forecast

Subpeak Weather

Time Avg. Air Temp Dew Point Avg. Rel Humidity Avg. 2 Min Wind Speed Max Gust Velocity MGV Time MGV Direction Avg. Spot Wind Velocity
2026-05-05 04:05:000° C-8° C53%28 km/h34 km/h04:04:00NE22 km/h
03:05:001° C-8° C51%24 km/h37 km/h03:01:00N23 km/h
02:05:001° C-8° C52%28 km/h35 km/h02:02:00NE29 km/h
01:05:001° C-7° C55%35 km/h44 km/h01:01:00NE36 km/h
00:05:001° C-6° C57%38 km/h44 km/h00:02:00NE38 km/h
23:05:002° C-5° C59%26 km/h41 km/h23:01:00NE24 km/h
22:05:003° C-5° C57%37 km/h46 km/h22:05:00NE37 km/h
21:05:003° C-5° C57%14 km/h37 km/h21:03:00N24 km/h
20:05:004° C-5° C56%20 km/h30 km/h20:05:00NW14 km/h
19:05:005° C-3° C55%14 km/h22 km/h19:05:00NE9 km/h
18:05:005° C-3° C55%9 km/h17 km/h18:01:00NE9 km/h
17:05:006° C-4° C51%9 km/h17 km/h17:04:00NE9 km/h
16:05:006° C-3° C52%4 km/h8 km/h16:03:00W4 km/h
15:05:007° C-3° C51%6 km/h21 km/h15:04:00N3 km/h
14:05:006° C-3° C51%3 km/h11 km/h14:05:00NE2 km/h
13:05:005° C-3° C54%0 km/h11 km/h13:02:00SW3 km/h
12:05:005° C-3° C56%9 km/h14 km/h12:02:00NE8 km/h
11:05:003° C-3° C61%22 km/h30 km/h11:02:00NE19 km/h
10:05:003° C-3° C63%34 km/h46 km/h10:04:00NE34 km/h
09:05:003° C-3° C62%31 km/h35 km/h09:04:00NE30 km/h
08:05:003° C-4° C61%27 km/h35 km/h08:03:00NE28 km/h
07:05:003° C-4° C60%31 km/h38 km/h07:02:00NE36 km/h
06:05:004° C-4° C58%20 km/h25 km/h06:01:00N20 km/h
05:05:004° C-4° C57%22 km/h24 km/h05:05:00NE22 km/h

Time Avg. Air Temp Dew Point Avg. Rel Humidity Avg. 2 Min Wind Speed Max Gust Velocity MGV Time MGV Direction Avg. Spot Wind Velocity
2026-05-05 04:05:000° C-8° C53%28 km/h34 km/h04:04:00NE22 km/h
04:00:001° C-8° C52%25 km/h36 km/h03:58:00NE26 km/h
03:55:001° C-8° C51%27 km/h37 km/h03:51:00NE30 km/h
03:50:001° C-8° C51%33 km/h38 km/h03:50:00NE31 km/h
03:45:001° C-8° C52%30 km/h37 km/h03:41:00NE30 km/h
03:40:001° C-8° C52%30 km/h36 km/h03:38:00NE31 km/h
03:35:001° C-8° C51%30 km/h37 km/h03:32:00NE33 km/h
03:30:001° C-8° C51%31 km/h40 km/h03:28:00NE34 km/h
03:25:001° C-8° C51%32 km/h39 km/h03:21:00NE32 km/h
03:20:001° C-8° C51%31 km/h37 km/h03:20:00NE30 km/h
03:15:001° C-8° C51%30 km/h34 km/h03:11:00NE31 km/h
03:10:001° C-8° C52%28 km/h35 km/h03:10:00NE27 km/h
03:05:001° C-8° C51%24 km/h37 km/h03:01:00N23 km/h

We value your privacy
We use cookies to enhance your browsing experience, serve personalized ads or content, and analyze our traffic. By clicking "Allow Cookies", you consent to our use of cookies. For additional details view our Privacy Policy.
Cookie preferences

You can control how your data is used on our website. Learn more below about the cookies we use by reviewing our Privacy Policy.

Your cookie preferences have been saved.